createdAt,value
2022-12-11T00:00:57.825Z,22.67
2022-12-11T00:03:26.126Z,21.73
2022-12-11T00:05:54.458Z,27.58
2022-12-11T00:08:22.806Z,23.20
2022-12-11T00:10:51.252Z,27.30
2022-12-11T00:13:19.523Z,20.73
2022-12-11T00:15:49.203Z,25.63
2022-12-11T00:18:17.523Z,21.70
2022-12-11T00:20:45.878Z,25.08
2022-12-11T00:23:14.421Z,24.40
2022-12-11T00:25:45.023Z,21.77
2022-12-11T00:28:13.320Z,21.30
2022-12-11T00:30:42.278Z,21.75
2022-12-11T00:33:14.512Z,18.92
2022-12-11T00:35:43.797Z,18.95
2022-12-11T00:38:15.398Z,22.48
2022-12-11T00:40:44.012Z,20.65
2022-12-11T00:43:12.328Z,19.40
2022-12-11T00:45:41.948Z,23.77
2022-12-11T00:48:11.956Z,19.80
2022-12-11T00:50:40.326Z,23.40
2022-12-11T00:53:09.046Z,24.63
2022-12-11T00:55:38.497Z,20.13
2022-12-11T00:58:07.320Z,18.48
2022-12-11T01:00:35.721Z,17.35
2022-12-11T01:03:04.167Z,20.13
2022-12-11T01:05:34.454Z,17.77
2022-12-11T01:08:02.728Z,21.83
2022-12-11T01:10:31.109Z,21.63
2022-12-11T01:13:00.519Z,19.30
2022-12-11T01:15:30.050Z,23.45
2022-12-11T01:17:58.345Z,17.23
2022-12-11T01:20:26.943Z,18.67
2022-12-11T01:22:57.764Z,15.73
2022-12-11T01:25:26.173Z,21.27
2022-12-11T01:27:55.043Z,22.02
2022-12-11T01:30:24.694Z,22.65
2022-12-11T01:32:53.467Z,17.58
2022-12-11T01:35:21.948Z,20.92
2022-12-11T01:37:50.520Z,21.40
2022-12-11T01:40:20.813Z,17.92
2022-12-11T01:42:49.145Z,17.00
2022-12-11T01:45:36.485Z,19.70
2022-12-11T01:48:09.036Z,22.63
2022-12-11T01:50:41.064Z,21.65
2022-12-11T01:53:12.009Z,20.92
2022-12-11T01:55:41.673Z,18.60
2022-12-11T01:58:10.387Z,19.95
2022-12-11T02:00:38.673Z,21.92
2022-12-11T02:03:06.918Z,17.15
2022-12-11T02:05:36.119Z,21.60
2022-12-11T02:08:04.408Z,20.42
2022-12-11T02:10:43.925Z,26.58
2022-12-11T02:13:15.421Z,17.65
2022-12-11T02:15:49.104Z,20.65
2022-12-11T02:18:22.512Z,18.10
2022-12-11T02:20:55.970Z,19.23
2022-12-11T02:23:53.417Z,19.75
2022-12-11T02:26:52.122Z,21.48
2022-12-11T02:29:24.106Z,19.35
2022-12-11T02:31:54.868Z,18.00
2022-12-11T02:34:26.066Z,18.80
2022-12-11T02:36:56.752Z,21.70
2022-12-11T02:39:25.033Z,19.42
2022-12-11T02:41:53.487Z,18.70
2022-12-11T02:44:26.086Z,16.52
2022-12-11T02:46:54.748Z,15.80
2022-12-11T02:49:23.102Z,18.17
2022-12-11T02:51:51.397Z,15.73
2022-12-11T02:54:21.783Z,16.90
2022-12-11T02:56:52.751Z,20.30
2022-12-11T02:59:27.305Z,19.35
2022-12-11T03:01:55.591Z,18.23
2022-12-11T03:04:24.955Z,20.58
2022-12-11T03:06:55.570Z,14.07
2022-12-11T03:09:23.837Z,20.27
2022-12-11T03:11:52.218Z,18.23
2022-12-11T03:14:20.491Z,16.50
2022-12-11T03:16:55.301Z,24.67
2022-12-11T03:19:29.217Z,16.63
2022-12-11T03:22:01.573Z,17.30
2022-12-11T03:24:32.122Z,19.50
2022-12-11T03:27:04.500Z,18.40
2022-12-11T03:29:38.734Z,18.67
2022-12-11T03:32:10.211Z,19.92
2022-12-11T03:34:42.913Z,22.25
2022-12-11T03:37:11.475Z,18.00
2022-12-11T03:39:41.762Z,17.60
2022-12-11T03:42:12.853Z,16.98
2022-12-11T03:44:41.132Z,19.83
2022-12-11T03:47:10.786Z,25.35
2022-12-11T03:49:41.539Z,22.98
2022-12-11T03:52:09.998Z,21.02
2022-12-11T03:54:38.299Z,23.33
2022-12-11T03:57:08.123Z,19.17
2022-12-11T03:59:36.408Z,19.35
2022-12-11T04:02:10.780Z,21.05
2022-12-11T04:04:41.342Z,18.13
2022-12-11T04:07:09.711Z,19.35
2022-12-11T04:09:38.185Z,20.42
2022-12-11T04:12:06.825Z,18.48
2022-12-11T04:14:52.363Z,23.27
2022-12-11T04:17:34.539Z,16.60
2022-12-11T04:20:22.206Z,18.80
2022-12-11T04:23:07.830Z,25.63
2022-12-11T04:25:36.100Z,17.85
2022-12-11T04:28:04.506Z,13.98
2022-12-11T04:30:34.530Z,24.60
2022-12-11T04:33:02.926Z,22.73
2022-12-11T04:35:32.674Z,18.17
2022-12-11T04:38:01.077Z,19.17
2022-12-11T04:40:29.359Z,17.13
2022-12-11T04:42:57.924Z,20.40
2022-12-11T04:45:26.285Z,19.80
2022-12-11T04:47:54.614Z,17.67
2022-12-11T04:50:22.901Z,19.02
2022-12-11T04:52:55.252Z,21.13
2022-12-11T04:55:23.470Z,18.05
2022-12-11T04:57:51.692Z,20.98
2022-12-11T05:00:20.211Z,18.52
2022-12-11T05:02:48.518Z,23.80
2022-12-11T05:05:16.868Z,20.98
2022-12-11T05:07:45.518Z,18.75
2022-12-11T05:10:15.232Z,21.33
2022-12-11T05:12:43.579Z,22.83
2022-12-11T05:15:12.280Z,19.65
2022-12-11T05:17:40.686Z,18.95
2022-12-11T05:20:10.562Z,24.05
2022-12-11T05:22:39.017Z,22.85
2022-12-11T05:25:09.562Z,28.92
2022-12-11T05:27:39.634Z,21.27
2022-12-11T05:30:10.325Z,20.80
2022-12-11T05:32:38.647Z,23.70
2022-12-11T05:35:07.999Z,21.85
2022-12-11T05:37:36.485Z,17.55
2022-12-11T05:40:06.317Z,15.98
2022-12-11T05:42:34.589Z,18.38
2022-12-11T05:45:04.928Z,17.95
2022-12-11T05:47:33.268Z,14.27
2022-12-11T05:50:01.621Z,18.30
2022-12-11T05:52:30.010Z,17.38
2022-12-11T05:54:58.252Z,20.60
2022-12-11T05:57:26.575Z,22.60
2022-12-11T05:59:54.863Z,17.05
2022-12-11T06:02:24.628Z,24.52
2022-12-11T06:04:52.990Z,17.23
2022-12-11T06:07:21.249Z,20.77
2022-12-11T06:09:49.564Z,25.00
2022-12-11T06:12:17.810Z,20.17
2022-12-11T06:14:46.173Z,18.02
2022-12-11T06:17:14.391Z,18.60
2022-12-11T06:19:44.022Z,20.83
2022-12-11T06:22:12.279Z,20.75
2022-12-11T06:24:41.091Z,17.85
2022-12-11T06:27:09.362Z,14.77
2022-12-11T06:29:37.618Z,22.23
2022-12-11T06:32:06.928Z,18.27
2022-12-11T06:34:35.246Z,18.83
2022-12-11T06:37:04.984Z,15.15
2022-12-11T06:39:33.482Z,17.73
2022-12-11T06:42:01.729Z,16.58
2022-12-11T06:44:30.166Z,15.02
2022-12-11T06:46:58.493Z,15.27
2022-12-11T06:49:26.856Z,16.73
2022-12-11T06:51:55.152Z,14.70
2022-12-11T06:54:28.335Z,13.95
2022-12-11T06:56:56.628Z,12.25
2022-12-11T06:59:26.113Z,11.23
2022-12-11T07:01:54.478Z,13.18
2022-12-11T07:04:24.684Z,12.70
2022-12-11T07:06:53.349Z,18.30
2022-12-11T07:09:22.866Z,17.75
2022-12-11T07:11:52.810Z,15.50
2022-12-11T07:14:21.316Z,13.48
2022-12-11T07:16:49.733Z,19.50
2022-12-11T07:19:18.055Z,16.27
2022-12-11T07:21:46.730Z,13.32
2022-12-11T07:24:15.075Z,17.70
2022-12-11T07:26:43.620Z,14.30
2022-12-11T07:29:13.330Z,15.65
2022-12-11T07:31:41.679Z,16.45
2022-12-11T07:34:12.542Z,12.40
2022-12-11T07:36:40.872Z,14.00
2022-12-11T07:39:09.575Z,13.18
2022-12-11T07:41:37.773Z,17.00
2022-12-11T07:44:06.621Z,12.63
2022-12-11T07:46:36.290Z,17.33
2022-12-11T07:49:05.975Z,12.75
2022-12-11T07:51:35.734Z,14.18
2022-12-11T07:54:05.626Z,15.30
2022-12-11T07:56:34.063Z,14.73
2022-12-11T07:59:02.550Z,13.55
2022-12-11T08:01:32.051Z,16.88
2022-12-11T08:04:01.747Z,13.63
2022-12-11T08:06:31.285Z,16.85
2022-12-11T08:09:00.751Z,18.65
2022-12-11T08:11:29.360Z,19.88
2022-12-11T08:13:57.690Z,15.80
2022-12-11T08:16:26.093Z,17.95
2022-12-11T08:18:54.436Z,17.30
2022-12-11T08:21:25.540Z,21.35
2022-12-11T08:23:54.728Z,18.73
2022-12-11T08:26:24.522Z,14.73
2022-12-11T08:28:52.816Z,20.20
2022-12-11T08:31:22.856Z,22.38
2022-12-11T08:33:51.457Z,21.13
2022-12-11T08:36:21.200Z,16.77
2022-12-11T08:38:51.002Z,22.60
2022-12-11T08:41:20.651Z,21.00
2022-12-11T08:43:49.368Z,21.52
2022-12-11T08:46:17.761Z,21.92
2022-12-11T08:48:46.078Z,20.35
2022-12-11T08:51:15.872Z,22.98
2022-12-11T08:53:44.326Z,19.85
2022-12-11T08:56:15.656Z,18.85
2022-12-11T08:58:44.001Z,15.80
2022-12-11T09:01:13.864Z,12.68
2022-12-11T09:03:42.280Z,15.75
2022-12-11T09:06:12.466Z,11.63
2022-12-11T09:08:40.982Z,17.90
2022-12-11T09:11:10.415Z,22.92
2022-12-11T09:13:40.721Z,18.10
2022-12-11T09:16:11.101Z,18.48
2022-12-11T09:18:39.651Z,17.70
2022-12-11T09:21:09.644Z,15.98
2022-12-11T09:23:38.296Z,16.83
2022-12-11T09:26:07.018Z,13.10
2022-12-11T09:28:36.814Z,12.23
2022-12-11T09:31:11.356Z,17.25
2022-12-11T09:33:39.766Z,14.65
2022-12-11T09:36:09.232Z,15.25
2022-12-11T09:38:37.505Z,15.27
2022-12-11T09:41:22.318Z,18.42
2022-12-11T09:43:53.289Z,14.90
2022-12-11T09:46:24.834Z,13.23
2022-12-11T09:48:53.688Z,18.38
2022-12-11T09:51:25.196Z,11.82
2022-12-11T09:53:53.469Z,11.23
2022-12-11T09:56:26.354Z,15.32
2022-12-11T09:59:03.570Z,11.80
2022-12-11T10:01:39.466Z,17.20
2022-12-11T10:04:37.717Z,11.55
2022-12-11T10:07:13.055Z,13.00
2022-12-11T10:09:49.002Z,15.25
2022-12-11T10:12:27.919Z,13.35
2022-12-11T10:15:27.814Z,13.35
2022-12-11T10:18:04.395Z,14.93
2022-12-11T10:20:36.492Z,9.88
2022-12-11T10:23:05.821Z,11.38
2022-12-11T10:25:36.572Z,17.77
2022-12-11T10:28:13.310Z,13.65
2022-12-11T10:30:45.310Z,13.25
2022-12-11T10:33:23.395Z,18.05
2022-12-11T10:35:53.017Z,17.90
2022-12-11T10:38:28.897Z,12.85
2022-12-11T10:40:59.222Z,10.05
2022-12-11T10:43:51.659Z,13.38
2022-12-11T10:46:22.058Z,13.05
2022-12-11T10:48:54.149Z,13.73
2022-12-11T10:51:24.831Z,9.60
2022-12-11T10:53:53.737Z,12.77
2022-12-11T10:56:27.591Z,15.55
2022-12-11T10:58:55.937Z,15.80
2022-12-11T11:01:25.353Z,13.23
2022-12-11T11:03:58.431Z,12.00
2022-12-11T11:06:27.378Z,15.38
2022-12-11T11:08:57.457Z,14.18
2022-12-11T11:11:29.452Z,13.52
2022-12-11T11:14:18.448Z,14.13
2022-12-11T11:16:47.809Z,12.93
2022-12-11T11:19:23.345Z,16.27
2022-12-11T11:21:54.284Z,15.13
2022-12-11T11:24:31.284Z,10.50
2022-12-11T11:27:14.973Z,12.07
2022-12-11T11:29:46.612Z,14.80
2022-12-11T11:32:20.157Z,17.77
2022-12-11T11:34:49.777Z,18.20
2022-12-11T11:37:26.357Z,15.00
2022-12-11T11:39:56.630Z,13.07
2022-12-11T11:42:29.059Z,15.95
2022-12-11T11:45:02.293Z,17.25
2022-12-11T11:47:35.283Z,11.30
2022-12-11T11:50:08.546Z,13.77
2022-12-11T11:52:40.171Z,15.63
2022-12-11T11:55:10.847Z,12.25
2022-12-11T11:57:43.524Z,9.27
2022-12-11T12:00:21.338Z,13.65
2022-12-11T12:02:51.170Z,14.93
2022-12-11T12:05:25.230Z,12.05
2022-12-11T12:08:03.656Z,14.48
2022-12-11T12:10:36.024Z,13.27
2022-12-11T12:13:23.864Z,13.50
2022-12-11T12:15:57.933Z,18.15
2022-12-11T12:18:36.365Z,13.55
2022-12-11T12:21:12.358Z,15.55
2022-12-11T12:23:53.832Z,13.13
2022-12-11T12:26:27.044Z,16.15
2022-12-11T12:29:04.273Z,18.05
2022-12-11T12:31:54.784Z,13.77
2022-12-11T12:34:32.760Z,16.85
2022-12-11T12:37:09.071Z,14.77
2022-12-11T12:39:42.989Z,15.00
2022-12-11T12:42:19.362Z,13.90
2022-12-11T12:44:51.946Z,14.05
2022-12-11T12:47:20.259Z,18.60
2022-12-11T12:49:50.096Z,14.20
2022-12-11T12:52:22.047Z,14.38
2022-12-11T12:55:12.363Z,15.85
2022-12-11T12:57:40.869Z,16.08
2022-12-11T13:00:13.484Z,15.98
2022-12-11T13:02:50.285Z,15.65
2022-12-11T13:05:22.384Z,14.52
2022-12-11T13:07:54.774Z,12.35
2022-12-11T13:10:30.024Z,15.07
2022-12-11T13:12:58.289Z,13.68
2022-12-11T13:15:36.133Z,16.35
2022-12-11T13:18:06.173Z,11.32
2022-12-11T13:20:34.895Z,14.68
2022-12-11T13:23:32.205Z,19.48
2022-12-11T13:26:01.974Z,16.58
2022-12-11T13:28:47.135Z,17.83
2022-12-11T13:31:35.474Z,15.23
2022-12-11T13:34:18.393Z,16.08
2022-12-11T13:36:50.588Z,22.10
2022-12-11T13:39:21.169Z,17.70
2022-12-11T13:41:53.262Z,14.75
2022-12-11T13:44:25.614Z,21.80
2022-12-11T13:46:54.445Z,16.65
2022-12-11T13:49:25.192Z,17.05
2022-12-11T13:51:58.036Z,16.45
2022-12-11T13:54:28.194Z,20.25
2022-12-11T13:57:04.927Z,17.52
2022-12-11T13:59:36.115Z,18.50
2022-12-11T14:02:14.506Z,12.95
2022-12-11T14:04:42.794Z,18.73
2022-12-11T14:07:11.141Z,14.68
2022-12-11T14:09:43.993Z,14.18
2022-12-11T14:12:18.349Z,15.55
2022-12-11T14:14:48.228Z,14.57
2022-12-11T14:17:24.125Z,15.10
2022-12-11T14:19:52.415Z,20.42
2022-12-11T14:22:22.677Z,15.65
2022-12-11T14:24:53.437Z,20.05
2022-12-11T14:27:22.248Z,16.58
2022-12-11T14:29:50.578Z,19.60
2022-12-11T14:32:22.058Z,15.68
2022-12-11T14:34:50.629Z,18.13
2022-12-11T14:37:19.433Z,20.77
2022-12-11T14:39:51.432Z,14.68
2022-12-11T14:42:21.667Z,15.50
2022-12-11T14:44:51.456Z,18.58
2022-12-11T14:47:21.423Z,15.70
2022-12-11T14:49:52.518Z,17.95
2022-12-11T14:52:22.318Z,16.83
2022-12-11T14:54:52.658Z,23.60
2022-12-11T14:57:24.478Z,15.90
2022-12-11T14:59:53.530Z,19.45
2022-12-11T15:02:26.163Z,25.17
2022-12-11T15:05:16.755Z,25.55
2022-12-11T15:07:53.903Z,28.10
2022-12-11T15:10:31.237Z,23.88
2022-12-11T15:13:01.115Z,20.75
2022-12-11T15:15:29.956Z,25.02
2022-12-11T15:17:58.261Z,20.38
2022-12-11T15:20:29.547Z,22.85
2022-12-11T15:22:59.813Z,20.65
2022-12-11T15:25:29.549Z,22.95
2022-12-11T15:28:00.566Z,18.83
2022-12-11T15:30:34.750Z,19.38
2022-12-11T15:33:22.136Z,21.90
2022-12-11T15:36:02.531Z,18.08
2022-12-11T15:38:34.189Z,21.63
2022-12-11T15:41:03.166Z,20.10
2022-12-11T15:43:35.674Z,25.30
2022-12-11T15:46:04.493Z,18.15
2022-12-11T15:48:32.796Z,22.08
2022-12-11T15:51:01.165Z,22.73
2022-12-11T15:53:29.445Z,20.55
2022-12-11T15:55:58.449Z,20.13
2022-12-11T15:58:27.287Z,19.20
2022-12-11T16:00:57.774Z,18.70
2022-12-11T16:03:27.888Z,19.85
2022-12-11T16:05:56.220Z,23.65
2022-12-11T16:08:25.367Z,19.58
2022-12-11T16:10:55.240Z,21.15
2022-12-11T16:13:23.594Z,22.15
2022-12-11T16:15:53.685Z,19.80
2022-12-11T16:18:24.581Z,22.00
2022-12-11T16:20:53.274Z,14.60
2022-12-11T16:23:21.681Z,20.27
2022-12-11T16:25:49.912Z,25.20
2022-12-11T16:28:20.748Z,17.75
2022-12-11T16:30:49.654Z,17.48
2022-12-11T16:33:18.252Z,15.93
2022-12-11T16:35:47.862Z,14.52
2022-12-11T16:38:16.166Z,19.95
2022-12-11T16:40:45.500Z,25.60
2022-12-11T16:43:13.768Z,25.02
2022-12-11T16:45:42.127Z,20.60
2022-12-11T16:48:10.587Z,22.50
2022-12-11T16:50:41.201Z,18.55
2022-12-11T16:53:13.279Z,20.20
2022-12-11T16:55:42.391Z,21.88
2022-12-11T16:58:11.605Z,18.20
2022-12-11T17:00:40.024Z,17.83
2022-12-11T17:03:08.357Z,17.75
2022-12-11T17:05:36.591Z,17.02
2022-12-11T17:08:05.031Z,19.13
2022-12-11T17:10:34.666Z,16.13
2022-12-11T17:13:02.987Z,20.20
2022-12-11T17:15:31.327Z,18.15
2022-12-11T17:17:59.662Z,20.08
2022-12-11T17:20:27.927Z,25.65
2022-12-11T17:22:56.214Z,27.90
2022-12-11T17:25:24.625Z,32.58
2022-12-11T17:27:54.286Z,17.23
2022-12-11T17:30:22.618Z,21.48
2022-12-11T17:32:50.866Z,23.38
2022-12-11T17:35:19.369Z,23.88
2022-12-11T17:37:47.611Z,22.00
2022-12-11T17:40:16.042Z,26.33
2022-12-11T17:42:44.910Z,22.48
2022-12-11T17:45:14.728Z,20.85
2022-12-11T17:47:43.171Z,24.33
2022-12-11T17:50:11.585Z,20.98
2022-12-11T17:52:44.133Z,21.33
2022-12-11T17:55:13.324Z,22.88
2022-12-11T17:57:41.781Z,21.38
2022-12-11T18:00:11.711Z,20.48
2022-12-11T18:02:41.390Z,25.48
2022-12-11T18:05:10.036Z,30.60
2022-12-11T18:07:38.995Z,27.65
2022-12-11T18:10:08.158Z,23.85
2022-12-11T18:12:36.450Z,23.40
2022-12-11T18:15:05.497Z,18.90
2022-12-11T18:17:34.404Z,23.13
2022-12-11T18:20:04.352Z,20.77
2022-12-11T18:22:32.667Z,26.02
2022-12-11T18:25:06.422Z,23.60
2022-12-11T18:27:38.490Z,20.65
2022-12-11T18:30:08.163Z,19.90
2022-12-11T18:32:36.405Z,23.33
2022-12-11T18:35:07.084Z,24.27
2022-12-11T18:37:35.521Z,22.15
2022-12-11T18:40:03.897Z,24.95
2022-12-11T18:42:33.713Z,22.40
2022-12-11T18:45:02.232Z,25.13
2022-12-11T18:47:30.574Z,25.27
2022-12-11T18:50:03.889Z,24.65
2022-12-11T18:52:36.911Z,24.17
2022-12-11T18:55:06.092Z,25.67
2022-12-11T18:57:34.827Z,27.77
2022-12-11T19:00:07.403Z,30.67
2022-12-11T19:02:35.965Z,25.25
2022-12-11T19:05:04.609Z,22.60
2022-12-11T19:07:33.383Z,24.88
2022-12-11T19:10:03.296Z,22.23
2022-12-11T19:12:31.902Z,21.75
2022-12-11T19:15:00.512Z,22.75
2022-12-11T19:17:28.818Z,25.55
2022-12-11T19:19:57.265Z,54.35
2022-12-11T19:22:25.612Z,22.10
2022-12-11T19:24:53.966Z,20.25
2022-12-11T19:27:23.595Z,22.20
2022-12-11T19:29:51.882Z,22.60
2022-12-11T19:32:20.134Z,21.50
2022-12-11T19:34:48.698Z,24.58
2022-12-11T19:37:16.978Z,24.75
2022-12-11T19:39:45.243Z,23.05
2022-12-11T19:42:13.617Z,20.50
2022-12-11T19:44:43.292Z,24.60
2022-12-11T19:47:11.607Z,20.77
2022-12-11T19:49:40.012Z,22.55
2022-12-11T19:52:08.332Z,26.75
2022-12-11T19:54:36.807Z,22.33
2022-12-11T19:57:05.364Z,18.58
2022-12-11T19:59:33.868Z,22.02
2022-12-11T20:02:03.625Z,21.25
2022-12-11T20:04:31.956Z,23.27
2022-12-11T20:07:00.247Z,29.30
2022-12-11T20:09:28.471Z,25.45
2022-12-11T20:11:56.835Z,22.08
2022-12-11T20:14:26.429Z,23.83
2022-12-11T20:17:13.950Z,18.42
2022-12-11T20:19:44.508Z,34.53
2022-12-11T20:22:12.863Z,21.80
2022-12-11T20:24:42.250Z,25.25
2022-12-11T20:27:12.327Z,23.23
2022-12-11T20:29:40.714Z,24.00
2022-12-11T20:32:11.218Z,23.50
2022-12-11T20:34:39.784Z,20.40
2022-12-11T20:37:09.474Z,22.42
2022-12-11T20:39:38.041Z,23.95
2022-12-11T20:42:06.390Z,25.65
2022-12-11T20:44:34.636Z,22.10
2022-12-11T20:47:03.071Z,21.55
2022-12-11T20:49:31.309Z,22.42
2022-12-11T20:51:59.706Z,19.88
2022-12-11T20:54:29.345Z,24.42
2022-12-11T20:56:57.691Z,20.85
2022-12-11T20:59:26.768Z,20.95
2022-12-11T21:01:55.957Z,21.45
2022-12-11T21:04:24.578Z,23.77
2022-12-11T21:06:55.479Z,21.63
2022-12-11T21:09:25.251Z,18.67
2022-12-11T21:11:54.967Z,24.35
2022-12-11T21:14:24.081Z,24.33
2022-12-11T21:16:52.573Z,19.35
2022-12-11T21:19:21.214Z,19.60
2022-12-11T21:21:49.689Z,22.70
2022-12-11T21:24:19.359Z,23.70
2022-12-11T21:26:47.796Z,22.15
2022-12-11T21:29:17.761Z,25.13
2022-12-11T21:31:46.124Z,24.63
2022-12-11T21:34:16.652Z,27.05
2022-12-11T21:36:48.045Z,22.05
2022-12-11T21:39:16.762Z,20.42
2022-12-11T21:41:45.282Z,23.08
2022-12-11T21:47:03.841Z,27.10
2022-12-11T21:49:32.299Z,27.25
2022-12-11T21:52:00.547Z,27.50
2022-12-11T21:54:29.800Z,24.77
2022-12-11T21:56:58.453Z,29.45
2022-12-11T21:59:26.972Z,22.70
2022-12-11T22:01:55.640Z,22.02
2022-12-11T22:04:25.527Z,30.10
2022-12-11T22:06:53.904Z,26.33
2022-12-11T22:09:22.173Z,27.58
2022-12-11T22:11:55.055Z,26.08
2022-12-11T22:14:26.442Z,27.45
2022-12-11T22:16:54.738Z,28.30
2022-12-11T22:19:27.851Z,24.38
2022-12-11T22:21:59.020Z,25.02
2022-12-11T22:24:27.269Z,25.33
2022-12-11T22:26:55.490Z,25.42
2022-12-11T22:29:23.866Z,28.20
2022-12-11T22:31:52.838Z,29.33
2022-12-11T22:34:21.075Z,26.33
2022-12-11T22:36:50.690Z,30.80
2022-12-11T22:39:18.936Z,26.52
2022-12-11T22:41:47.188Z,29.90
2022-12-11T22:44:16.646Z,24.92
2022-12-11T22:46:49.635Z,27.13
2022-12-11T22:49:18.723Z,28.90
2022-12-11T22:51:47.025Z,36.35
2022-12-11T22:54:16.650Z,28.58
2022-12-11T22:56:45.274Z,30.23
2022-12-11T22:59:13.724Z,28.20
2022-12-11T23:01:41.973Z,34.05
2022-12-11T23:04:10.213Z,27.75
2022-12-11T23:06:38.580Z,29.10
2022-12-11T23:09:07.224Z,34.90
2022-12-11T23:11:38.414Z,28.23
2022-12-11T23:14:07.629Z,32.47
2022-12-11T23:16:35.993Z,31.55
2022-12-11T23:19:04.656Z,29.35
2022-12-11T23:21:33.038Z,26.35
2022-12-11T23:24:01.445Z,27.02
2022-12-11T23:26:30.205Z,26.33
2022-12-11T23:29:00.329Z,28.60
2022-12-11T23:31:30.074Z,30.52
2022-12-11T23:33:58.545Z,29.33
2022-12-11T23:36:26.986Z,28.58
2022-12-11T23:38:55.397Z,26.67
2022-12-11T23:41:23.799Z,27.27
2022-12-11T23:43:52.116Z,28.13
2022-12-11T23:46:23.753Z,30.73
2022-12-11T23:48:52.814Z,26.65
2022-12-11T23:51:21.932Z,36.50
2022-12-11T23:53:50.272Z,29.80
2022-12-11T23:56:21.070Z,30.42
2022-12-11T23:58:49.333Z,26.45
